Time;durP1;ratioP1;P1;durP2;ratioP2;P2;SDS_P1;SDS_P2;PMS_P1;PMS_P2;Temp;Humidity;BMP_temperature;BMP_pressure;BME280_temperature;BME280_humidity;BME280_pressure;Samples;Min_cycle;Max_cycle;Signal;HPM_P1;HPM_P2
2021/11/12 00:03:27;;;;;;;113.60;53.53;;;;;;;6.78;63.61;100694.66;4968512;28;20209;-70
2021/11/12 00:14:10;;;;;;;93.57;48.60;;;;;;;7.18;63.05;100676.88;4962778;28;20058;-72
2021/11/12 00:16:41;;;;;;;105.28;52.92;;;;;;;7.23;63.08;100672.22;4963793;28;20053;-70
2021/11/12 00:19:08;;;;;;;100.32;50.35;;;;;;;7.32;62.97;100669.13;4964338;28;20047;-73
2021/11/12 00:21:36;;;;;;;100.38;50.88;;;;;;;7.31;62.94;100674.44;5027945;28;20043;-71
2021/11/12 00:24:05;;;;;;;95.03;52.25;;;;;;;7.39;62.91;100673.13;5029435;28;20058;-71
2021/11/12 00:26:32;;;;;;;93.13;51.70;;;;;;;7.47;62.69;100676.22;4964582;28;20058;-71
2021/11/12 00:29:01;;;;;;;87.63;47.78;;;;;;;7.53;62.48;100676.81;4963057;28;20051;-72
2021/11/12 00:31:34;;;;;;;88.80;48.38;;;;;;;7.52;62.74;100669.84;4963638;28;20073;-72
2021/11/12 00:36:50;;;;;;;82.60;46.43;;;;;;;7.62;62.43;100660.56;5002767;28;20116;-72
2021/11/12 00:39:21;;;;;;;89.18;45.40;;;;;;;7.60;62.73;100662.44;5002745;28;20042;-71
2021/11/12 00:41:54;;;;;;;89.38;48.70;;;;;;;7.64;62.48;100656.06;5002137;28;20084;-73
2021/11/12 00:44:28;;;;;;;96.32;52.50;;;;;;;7.70;62.54;100658.34;5002409;28;20060;-73
2021/11/12 00:47:00;;;;;;;98.22;51.25;;;;;;;7.76;62.51;100647.50;5002477;28;20046;-71
2021/11/12 00:49:31;;;;;;;89.57;48.60;;;;;;;7.82;62.47;100654.22;5002857;28;20121;-73
2021/11/12 00:51:59;;;;;;;96.88;53.33;;;;;;;7.89;62.41;100652.94;5002558;28;20471;-71
2021/11/12 00:54:26;;;;;;;93.38;51.25;;;;;;;7.92;62.49;100649.28;5003529;28;20544;-73
2021/11/12 00:56:54;;;;;;;90.45;46.00;;;;;;;7.94;62.46;100656.19;5001730;28;20124;-71
2021/11/12 00:59:21;;;;;;;99.68;51.15;;;;;;;8.01;62.46;100664.56;5002749;28;20038;-71
2021/11/12 01:01:49;;;;;;;90.90;52.70;;;;;;;8.06;62.38;100664.31;5001250;28;20054;-72
2021/11/12 01:04:18;;;;;;;92.43;48.90;;;;;;;8.08;62.51;100662.44;5001777;28;20054;-71
2021/11/12 01:06:46;;;;;;;91.03;49.90;;;;;;;8.09;62.38;100662.38;5002747;28;20085;-70
2021/11/12 01:09:15;;;;;;;81.20;46.92;;;;;;;8.07;62.34;100656.34;5002809;28;20042;-70
2021/11/12 01:11:45;;;;;;;93.40;49.13;;;;;;;8.10;62.44;100660.56;5001764;28;20064;-69
2021/11/12 01:14:13;;;;;;;91.60;50.17;;;;;;;8.11;62.38;100657.03;4980338;28;20055;-72
2021/11/12 01:16:40;;;;;;;89.75;52.75;;;;;;;8.11;62.57;100662.28;4965736;28;20057;-69
2021/11/12 01:19:08;;;;;;;86.57;46.42;;;;;;;8.13;62.47;100661.25;4963470;28;20085;-71
2021/11/12 01:21:35;;;;;;;89.10;48.17;;;;;;;8.17;62.27;100660.13;4965303;28;20047;-71
2021/11/12 01:24:05;;;;;;;82.90;47.67;;;;;;;8.21;62.38;100650.28;4963920;28;20050;-71
2021/11/12 01:26:33;;;;;;;93.63;50.28;;;;;;;8.23;62.35;100654.53;4964716;28;20055;-71
2021/11/12 01:29:00;;;;;;;94.15;50.80;;;;;;;8.27;62.34;100655.22;4965812;28;20047;-72
2021/11/12 01:31:30;;;;;;;84.22;46.40;;;;;;;8.29;62.28;100644.63;4963075;28;20058;-71
2021/11/12 01:34:05;;;;;;;91.88;46.50;;;;;;;8.32;62.33;100640.03;4965733;28;20138;-71
2021/11/12 01:36:34;;;;;;;94.38;49.70;;;;;;;8.37;62.28;100647.66;4968488;28;20046;-70
2021/11/12 01:39:06;;;;;;;95.13;49.08;;;;;;;8.37;62.47;100642.38;4967873;28;20129;-70
2021/11/12 01:41:34;;;;;;;86.55;45.72;;;;;;;8.39;62.38;100653.66;4968068;28;20677;-70
2021/11/12 01:44:04;;;;;;;104.32;52.25;;;;;;;8.42;62.42;100649.09;4967093;28;20397;-72
2021/11/12 01:46:39;;;;;;;94.35;47.40;;;;;;;8.45;62.40;100645.47;4965855;28;20139;-70
2021/11/12 01:49:23;;;;;;;99.40;47.97;;;;;;;8.51;62.55;100654.78;4965979;28;20124;-71
2021/11/12 01:51:54;;;;;;;93.88;48.72;;;;;;;8.54;62.29;100649.34;4966678;28;20047;-68
2021/11/12 02:00:10;;;;;;;96.45;47.85;;;;;;;8.68;62.08;100646.78;5005970;28;19972;-70
2021/11/12 02:02:40;;;;;;;101.13;49.00;;;;;;;8.68;62.31;100653.81;5003911;28;20069;-68
2021/11/12 02:05:08;;;;;;;100.03;46.92;;;;;;;8.67;62.57;100660.88;5011632;28;20141;-70
2021/11/12 02:07:36;;;;;;;101.75;46.30;;;;;;;8.68;62.53;100667.84;5007201;28;20046;-70
2021/11/12 02:10:11;;;;;;;105.05;49.95;;;;;;;8.71;62.83;100666.81;5009111;28;20057;-71
2021/11/12 02:12:49;;;;;;;104.55;47.13;;;;;;;8.73;62.72;100665.78;5009693;28;20053;-71
2021/11/12 02:15:19;;;;;;;124.03;51.72;;;;;;;8.70;62.86;100670.38;5009433;28;20418;-71
2021/11/12 02:17:55;;;;;;;116.50;51.72;;;;;;;8.66;62.91;100663.59;5011763;28;20046;-70
2021/11/12 02:20:26;;;;;;;116.13;53.70;;;;;;;8.66;63.20;100653.06;5011621;28;20110;-73
2021/11/12 02:22:58;;;;;;;119.30;53.60;;;;;;;8.69;63.43;100660.78;5010341;28;20049;-69
2021/11/12 02:25:28;;;;;;;114.43;52.05;;;;;;;8.69;63.39;100659.00;5007224;28;20088;-70
2021/11/12 02:27:56;;;;;;;120.30;50.30;;;;;;;8.68;63.49;100662.56;5006947;28;20597;-70
2021/11/12 02:30:25;;;;;;;109.93;47.40;;;;;;;8.69;63.71;100660.78;5007267;28;20717;-72
2021/11/12 02:33:00;;;;;;;109.75;48.58;;;;;;;8.73;63.66;100664.94;5008298;28;20053;-70
2021/11/12 02:35:28;;;;;;;116.63;47.72;;;;;;;8.79;63.41;100664.59;4972374;28;20123;-72
2021/11/12 02:37:57;;;;;;;118.72;51.83;;;;;;;8.81;63.70;100667.97;4969212;28;20047;-70
2021/11/12 02:40:24;;;;;;;122.60;48.88;;;;;;;8.86;63.56;100663.28;4968908;28;20054;-70
2021/11/12 02:42:51;;;;;;;117.10;52.70;;;;;;;8.92;63.57;100664.72;4967533;28;20518;-69
2021/11/12 02:45:18;;;;;;;119.07;50.97;;;;;;;8.97;63.60;100666.13;4967696;28;20108;-69
2021/11/12 02:47:47;;;;;;;108.40;46.72;;;;;;;9.04;63.55;100668.38;4967686;28;20057;-71
2021/11/12 02:50:18;;;;;;;118.18;46.83;;;;;;;9.02;63.79;100667.63;4966961;28;20506;-71
2021/11/12 02:52:47;;;;;;;115.20;46.83;;;;;;;9.03;63.92;100671.97;4965995;28;20571;-72
2021/11/12 02:55:16;;;;;;;122.03;45.55;;;;;;;9.00;64.37;100673.00;4967335;28;20155;-70
2021/11/12 02:57:44;;;;;;;110.40;45.92;;;;;;;8.99;64.71;100666.03;5015706;28;20051;-72
2021/11/12 03:00:15;;;;;;;94.72;40.72;;;;;;;8.98;64.87;100675.75;5034318;28;20051;-72
2021/11/12 03:02:43;;;;;;;108.78;42.25;;;;;;;8.95;65.57;100670.66;4965240;28;20086;-71
2021/11/12 03:05:10;;;;;;;117.68;46.63;;;;;;;8.96;65.65;100671.47;4966471;28;20057;-71
2021/11/12 03:07:37;;;;;;;112.85;41.97;;;;;;;8.97;65.97;100668.75;4966928;28;20055;-71
2021/11/12 03:10:06;;;;;;;132.02;42.50;;;;;;;9.01;66.16;100668.59;4966829;28;20055;-72
2021/11/12 03:12:37;;;;;;;131.73;45.08;;;;;;;8.96;66.45;100661.78;5014414;28;20051;-71
2021/11/12 03:15:05;;;;;;;130.48;42.70;;;;;;;8.92;66.90;100681.34;4965871;28;20705;-74
2021/11/12 03:17:33;;;;;;;127.85;42.58;;;;;;;8.95;67.12;100670.66;4966175;28;20050;-71
2021/11/12 03:20:00;;;;;;;115.15;40.08;;;;;;;8.98;66.92;100672.22;4964707;28;20498;-72
2021/11/12 03:22:33;;;;;;;106.95;41.53;;;;;;;8.94;67.19;100668.94;4965899;28;20330;-70
2021/11/12 03:25:06;;;;;;;109.80;37.47;;;;;;;9.02;66.97;100672.91;4965945;28;20066;-70
2021/11/12 03:27:38;;;;;;;107.50;36.15;;;;;;;9.10;66.76;100668.88;4965085;28;20061;-73
2021/11/12 03:30:35;;;;;;;97.60;34.05;;;;;;;9.12;66.69;100667.00;4965848;28;20070;-73
2021/11/12 03:49:26;;;;;;;;;;;;;;;9.26;66.78;100691.69;4965351;28;20070;-71
2021/11/12 04:04:06;;;;;;;152.38;56.33;;;;;;;8.79;68.38;100699.66;4905228;29;20905;-70
2021/11/12 04:06:39;;;;;;;148.48;55.28;;;;;;;8.67;68.88;100696.88;4905666;29;20910;-72
2021/11/12 04:17:43;;;;;;;131.25;46.78;;;;;;;8.80;68.32;100693.47;4847427;29;20162;-71
2021/11/12 04:20:24;;;;;;;113.00;40.92;;;;;;;8.89;68.01;100701.75;4848996;29;20057;-74
2021/11/12 05:34:38;;;;;;;136.35;48.28;;;;;;;9.11;67.02;100723.28;4810503;29;20055;-71
2021/11/12 05:45:30;;;;;;;141.93;45.83;;;;;;;9.14;66.67;100730.16;4811698;29;20073;-72
2021/11/12 05:50:54;;;;;;;133.38;40.97;;;;;;;9.24;66.68;100739.22;4864945;28;20095;-72
2021/11/12 05:56:08;;;;;;;132.68;43.03;;;;;;;9.45;66.35;100738.88;4867968;29;20055;-71
2021/11/12 05:58:35;;;;;;;132.93;47.90;;;;;;;9.50;66.14;100740.28;4865782;29;20096;-70
2021/11/12 06:01:03;;;;;;;157.80;49.03;;;;;;;9.51;66.17;100741.16;4864968;29;20049;-71
2021/11/12 06:03:30;;;;;;;145.48;49.13;;;;;;;9.52;66.28;100743.69;4864632;28;20064;-71
2021/11/12 06:05:57;;;;;;;148.98;46.13;;;;;;;9.52;66.08;100746.31;4924532;28;20060;-71
2021/11/12 06:08:24;;;;;;;148.23;44.45;;;;;;;9.50;66.28;100750.84;5002857;28;20053;-71
2021/11/12 06:10:51;;;;;;;137.20;43.65;;;;;;;9.52;66.01;100748.13;4988755;28;20058;-71
2021/11/12 06:13:21;;;;;;;123.85;44.20;;;;;;;9.55;66.03;100753.22;4963505;28;20491;-71
2021/11/12 06:15:48;;;;;;;145.25;48.40;;;;;;;9.56;65.84;100749.63;4963991;28;20495;-71
2021/11/12 06:18:15;;;;;;;119.57;43.83;;;;;;;9.55;65.83;100747.94;5030733;28;20046;-70
2021/11/12 06:20:42;;;;;;;138.10;47.05;;;;;;;9.57;65.89;100746.88;4965221;28;20057;-70
2021/11/12 06:23:09;;;;;;;137.48;52.15;;;;;;;9.58;65.87;100750.41;4966290;28;20108;-72
2021/11/12 06:25:36;;;;;;;122.93;44.92;;;;;;;9.56;65.63;100747.84;4965185;28;20084;-71
2021/11/12 06:28:03;;;;;;;129.93;46.85;;;;;;;9.54;65.74;100751.50;4965996;28;20058;-71
2021/11/12 06:30:31;;;;;;;125.53;45.38;;;;;;;9.57;65.72;100752.16;4965649;28;20424;-71
2021/11/12 06:32:58;;;;;;;119.32;44.53;;;;;;;9.59;65.69;100762.63;4963747;28;20047;-71
2021/11/12 06:35:27;;;;;;;128.25;43.65;;;;;;;9.61;65.79;100763.38;4966041;28;20105;-71
2021/11/12 06:37:54;;;;;;;115.00;41.30;;;;;;;9.66;65.55;100765.75;4968342;28;20042;-72
2021/11/12 06:40:21;;;;;;;124.15;41.78;;;;;;;9.70;65.24;100770.72;4966187;28;20051;-72
2021/11/12 06:43:01;;;;;;;110.30;41.08;;;;;;;9.71;65.32;100780.34;4968535;28;20050;-71
2021/11/12 06:51:01;;;;;;;117.53;42.55;;;;;;;9.72;65.11;100778.56;4975057;28;20096;-70
2021/11/12 06:53:28;;;;;;;114.55;42.42;;;;;;;9.71;65.19;100785.63;4968838;28;20466;-70
2021/11/12 06:55:57;;;;;;;125.45;40.53;;;;;;;9.72;65.07;100782.06;4964572;28;20077;-69
2021/11/12 06:58:26;;;;;;;117.35;42.70;;;;;;;9.72;65.07;100784.69;4964173;28;20152;-72
2021/11/12 07:00:53;;;;;;;123.45;44.17;;;;;;;9.75;65.22;100788.94;4963202;28;20042;-72
2021/11/12 07:03:22;;;;;;;149.82;50.53;;;;;;;9.79;65.21;100786.94;4964469;28;20054;-69
2021/11/12 07:05:50;;;;;;;121.80;44.92;;;;;;;9.77;64.98;100785.25;4964939;28;20487;-70
2021/11/12 07:08:17;;;;;;;125.38;47.15;;;;;;;9.75;65.03;100784.50;4965376;28;20771;-71
2021/11/12 07:10:44;;;;;;;114.32;43.13;;;;;;;9.76;64.97;100790.63;4964764;28;20795;-73
2021/11/12 07:13:11;;;;;;;147.63;47.50;;;;;;;9.80;65.04;100794.78;4975576;28;20118;-76
2021/11/12 07:15:39;;;;;;;124.60;43.42;;;;;;;9.85;64.82;100787.44;4987360;28;20073;-73
2021/11/12 07:18:08;;;;;;;118.30;41.08;;;;;;;9.89;64.68;100798.66;4983324;28;20100;-73
2021/11/12 07:20:37;;;;;;;106.95;42.17;;;;;;;9.87;64.78;100796.09;4983128;28;20536;-72
2021/11/12 07:23:04;;;;;;;115.35;40.00;;;;;;;9.86;64.69;100793.56;4982579;28;20425;-71
2021/11/12 07:25:32;;;;;;;102.38;39.85;;;;;;;9.88;64.76;100794.31;4983718;28;20046;-72
2021/11/12 07:27:59;;;;;;;115.15;43.95;;;;;;;9.90;64.66;100792.41;4983117;28;20088;-71
2021/11/12 07:30:26;;;;;;;112.53;40.15;;;;;;;9.89;64.66;100794.22;4982126;28;20084;-72
2021/11/12 07:32:54;;;;;;;106.38;41.05;;;;;;;9.92;64.55;100790.53;4982209;28;20563;-78
2021/11/12 07:35:26;;;;;;;115.00;42.42;;;;;;;9.93;64.64;100793.06;4988620;28;20801;-73
2021/11/12 07:38:00;;;;;;;110.53;41.10;;;;;;;9.95;64.59;100788.53;4987733;28;20058;-74
2021/11/12 07:40:41;;;;;;;117.78;42.90;;;;;;;9.98;64.49;100786.69;4986786;28;20050;-72
2021/11/12 07:43:22;;;;;;;124.25;40.92;;;;;;;9.94;64.68;100791.31;4984371;28;20049;-71
2021/11/12 07:46:09;;;;;;;116.53;43.05;;;;;;;9.93;64.60;100789.59;4982928;28;20046;-73
2021/11/12 07:48:36;;;;;;;111.68;48.28;;;;;;;9.89;64.48;100788.09;4984140;28;20241;-76
2021/11/12 07:51:03;;;;;;;124.90;45.80;;;;;;;9.87;64.71;100790.81;4981952;28;20056;-70
2021/11/12 07:53:32;;;;;;;124.68;46.97;;;;;;;9.93;64.24;100789.59;4982950;28;20422;-73
2021/11/12 07:55:58;;;;;;;125.55;48.33;;;;;;;9.94;64.43;100792.16;4974049;28;20703;-74
2021/11/12 07:58:25;;;;;;;128.43;47.63;;;;;;;9.96;64.24;100799.97;4962758;28;20059;-73
2021/11/12 08:00:52;;;;;;;113.28;43.63;;;;;;;9.98;64.26;100799.88;4961220;28;20514;-72
2021/11/12 08:03:19;;;;;;;112.75;46.00;;;;;;;10.02;64.16;100799.59;4972652;28;20055;-82
2021/11/12 08:05:49;;;;;;;116.82;48.33;;;;;;;10.04;64.04;100800.34;4977490;28;20057;-70
2021/11/12 08:08:19;;;;;;;112.00;44.30;;;;;;;10.10;64.06;100801.75;4971397;28;20185;-69
2021/11/12 08:11:22;;;;;;;129.05;43.60;;;;;;;10.12;63.89;100792.81;4970572;28;20051;-71
2021/11/12 08:13:53;;;;;;;114.35;43.55;;;;;;;10.16;63.51;100790.00;4998430;28;20502;-70
2021/11/12 08:16:40;;;;;;;112.40;45.20;;;;;;;10.16;63.50;100793.47;5002480;28;20045;-77
2021/11/12 08:19:10;;;;;;;133.38;50.25;;;;;;;10.19;63.38;100793.28;4998625;28;20038;-70
2021/11/12 08:21:41;;;;;;;109.15;45.33;;;;;;;10.11;63.66;100798.19;5000092;28;20373;-71
2021/11/12 08:24:12;;;;;;;119.13;47.28;;;;;;;10.15;63.52;100797.03;4997700;28;20057;-73
2021/11/12 08:26:55;;;;;;;116.93;43.40;;;;;;;10.15;63.63;100794.41;5000523;28;20045;-70
2021/11/12 08:32:42;;;;;;;104.50;39.85;;;;;;;10.10;63.49;100802.63;4996303;28;20054;-72
2021/11/12 08:35:18;;;;;;;106.78;40.45;;;;;;;10.12;63.50;100805.16;4999314;28;20121;-74
2021/11/12 08:38:01;;;;;;;;;;;;;;;10.37;62.88;100807.16;4998139;28;20491;-74
2021/11/12 08:40:43;;;;;;;102.63;37.60;;;;;;;10.20;63.36;100815.25;4995018;28;20020;-73
2021/11/12 08:43:15;;;;;;;98.43;41.78;;;;;;;10.17;63.27;100813.63;4998298;28;20041;-72
2021/11/12 08:45:44;;;;;;;113.82;41.05;;;;;;;10.16;63.33;100808.47;4995612;28;20053;-75
2021/11/12 08:48:14;;;;;;;92.95;41.60;;;;;;;10.18;63.24;100807.41;5005454;28;20086;-75
2021/11/12 08:50:42;;;;;;;102.85;39.22;;;;;;;10.25;63.20;100813.16;4988765;28;20095;-76
2021/11/12 08:53:10;;;;;;;109.30;43.00;;;;;;;10.33;63.02;100811.78;4971977;28;20047;-75
2021/11/12 08:56:12;;;;;;;98.72;41.67;;;;;;;10.35;63.02;100810.81;4973695;28;20050;-80
2021/11/12 08:58:50;;;;;;;88.68;37.72;;;;;;;10.27;62.97;100803.34;4975909;28;20145;-75
2021/11/12 09:01:18;;;;;;;82.38;38.72;;;;;;;10.27;62.97;100813.91;4968726;28;20053;-72
2021/11/12 09:03:45;;;;;;;96.32;40.35;;;;;;;10.32;62.83;100806.59;4970786;28;20057;-74
2021/11/12 09:06:13;;;;;;;87.00;36.20;;;;;;;10.34;62.74;100799.41;4970158;28;20053;-72
2021/11/12 09:08:41;;;;;;;91.35;41.17;;;;;;;10.46;62.59;100805.69;4972039;28;20043;-72
2021/11/12 09:11:10;;;;;;;95.22;42.05;;;;;;;10.56;62.33;100808.63;4971943;28;20054;-72
2021/11/12 09:13:42;;;;;;;97.03;41.15;;;;;;;10.54;62.38;100805.25;4971332;28;20111;-71
2021/11/12 09:16:12;;;;;;;92.35;40.55;;;;;;;10.59;62.46;100798.72;4972077;28;20137;-72
2021/11/12 09:18:40;;;;;;;87.00;37.25;;;;;;;10.54;62.26;100798.16;4972257;28;20073;-70
2021/11/12 09:21:07;;;;;;;83.35;36.97;;;;;;;10.53;62.39;100793.81;4973227;28;20062;-70
2021/11/12 09:23:34;;;;;;;83.93;36.78;;;;;;;10.57;62.29;100799.75;4969891;28;20043;-69
2021/11/12 09:26:02;;;;;;;98.90;42.80;;;;;;;10.65;62.14;100794.81;4964434;28;20054;-71
2021/11/12 09:28:29;;;;;;;70.60;33.83;;;;;;;10.64;62.10;100795.75;4963415;28;20082;-72
2021/11/12 09:30:56;;;;;;;83.38;38.70;;;;;;;10.71;62.11;100791.78;4961192;28;20086;-68
2021/11/12 09:33:27;;;;;;;83.07;38.67;;;;;;;10.85;61.79;100797.03;4964112;28;20055;-74
2021/11/12 09:35:54;;;;;;;88.30;39.72;;;;;;;11.00;61.52;100796.97;4963878;28;20051;-70
2021/11/12 09:38:23;;;;;;;77.97;35.45;;;;;;;11.10;61.29;100787.50;4961351;28;20051;-71
2021/11/12 09:40:50;;;;;;;75.35;35.30;;;;;;;11.17;61.08;100788.78;4962939;28;20129;-71
2021/11/12 09:43:18;;;;;;;70.43;36.10;;;;;;;11.20;60.99;100788.59;4962477;28;20053;-69
2021/11/12 09:45:47;;;;;;;68.85;34.15;;;;;;;11.26;60.85;100792.63;5030315;28;20559;-72
2021/11/12 09:48:16;;;;;;;86.70;37.95;;;;;;;11.27;60.71;100791.66;5007439;28;20043;-70
2021/11/12 09:50:45;;;;;;;70.10;34.80;;;;;;;11.33;60.64;100787.78;4968961;28;20084;-68
2021/11/12 09:53:12;;;;;;;73.97;34.33;;;;;;;11.42;60.31;100797.72;4969489;28;20039;-72
2021/11/12 09:55:40;;;;;;;69.47;31.23;;;;;;;11.45;60.33;100793.06;4965981;28;20058;-71
2021/11/12 09:58:08;;;;;;;69.07;30.25;;;;;;;11.50;60.23;100790.09;4968483;28;20605;-75
2021/11/12 10:00:37;;;;;;;76.10;33.55;;;;;;;11.46;60.18;100784.19;4978130;28;20046;-72
2021/11/12 10:03:07;;;;;;;66.30;32.58;;;;;;;11.54;60.01;100793.38;4981499;28;20134;-73
2021/11/12 10:05:39;;;;;;;68.82;32.97;;;;;;;11.57;59.78;100790.53;4981235;28;20130;-72
2021/11/12 10:08:27;;;;;;;75.82;34.25;;;;;;;11.60;60.06;100788.53;4984116;28;20836;-73
2021/11/12 10:10:58;;;;;;;68.18;35.95;;;;;;;11.69;59.62;100780.94;5047322;28;20399;-72
2021/11/12 10:13:30;;;;;;;70.93;34.95;;;;;;;11.69;59.64;100768.53;4978556;28;20145;-72
2021/11/12 10:16:13;;;;;;;70.35;37.17;;;;;;;11.67;59.54;100775.75;4966695;28;20138;-72
2021/11/12 10:19:02;;;;;;;77.88;35.50;;;;;;;11.82;59.50;100774.66;4978046;28;20050;-72
2021/11/12 10:21:35;;;;;;;81.25;38.75;;;;;;;11.87;58.93;100771.72;5038009;28;20047;-75
2021/11/12 10:24:22;;;;;;;65.43;32.67;;;;;;;11.92;59.19;100774.06;4966874;28;20054;-76
2021/11/12 10:26:53;;;;;;;63.70;34.67;;;;;;;11.94;58.94;100772.13;4977080;28;20421;-70
2021/11/12 10:29:25;;;;;;;60.97;34.10;;;;;;;12.00;58.92;100772.56;4965715;28;20436;-72
2021/11/12 10:34:39;;;;;;;72.32;34.35;;;;;;;11.90;58.85;100766.22;4974850;28;20046;-73
2021/11/12 10:37:12;;;;;;;68.72;34.40;;;;;;;11.81;59.11;100765.06;4969002;28;20070;-75
2021/11/12 10:39:43;;;;;;;68.78;34.63;;;;;;;11.82;59.13;100755.31;4967722;28;20055;-73
2021/11/12 10:42:15;;;;;;;64.85;35.97;;;;;;;11.81;59.24;100757.09;4969275;28;20149;-74
2021/11/12 10:44:46;;;;;;;64.47;33.95;;;;;;;11.80;59.41;100749.28;5034453;28;20051;-73
2021/11/12 10:47:18;;;;;;;59.28;35.78;;;;;;;11.80;59.17;100751.91;5009247;28;20106;-73
2021/11/12 10:49:47;;;;;;;55.97;30.67;;;;;;;11.83;59.05;100749.91;4973995;28;20085;-75
2021/11/12 10:52:17;;;;;;;65.18;33.55;;;;;;;11.89;59.26;100747.78;4973410;28;20639;-74
2021/11/12 10:54:57;;;;;;;73.25;37.60;;;;;;;11.95;58.92;100748.22;4969056;28;20051;-74
2021/11/12 10:57:29;;;;;;;80.85;36.58;;;;;;;11.96;58.96;100741.97;4967846;28;20059;-75
2021/11/12 11:00:00;;;;;;;69.75;35.60;;;;;;;11.89;59.09;100739.84;4967995;28;20111;-72
2021/11/12 11:02:35;;;;;;;70.53;35.22;;;;;;;11.88;58.82;100736.34;4970608;28;20054;-73
2021/11/12 11:05:05;;;;;;;62.92;32.22;;;;;;;11.90;59.06;100731.81;4970270;28;20104;-74
2021/11/12 11:07:32;;;;;;;74.15;34.08;;;;;;;11.83;59.01;100734.03;4983444;28;20564;-73
2021/11/12 11:10:02;;;;;;;71.72;36.65;;;;;;;11.76;59.12;100737.22;4966557;28;20108;-71
2021/11/12 11:12:39;;;;;;;72.78;35.58;;;;;;;11.74;59.30;100733.81;4968780;28;20039;-73
2021/11/12 11:15:18;;;;;;;61.97;32.92;;;;;;;11.79;59.12;100729.91;4971039;28;20046;-72
2021/11/12 11:17:48;;;;;;;73.28;36.28;;;;;;;11.90;59.00;100734.44;4972100;28;20061;-72
2021/11/12 11:20:18;;;;;;;63.33;32.45;;;;;;;11.92;58.93;100731.69;4971022;28;20054;-73
2021/11/12 11:22:54;;;;;;;68.72;33.22;;;;;;;11.93;58.99;100733.41;4972797;28;20054;-73
2021/11/12 11:25:27;;;;;;;70.53;33.45;;;;;;;11.97;58.89;100724.28;4969014;28;20684;-73
2021/11/12 11:27:58;;;;;;;64.35;34.97;;;;;;;11.96;58.81;100722.59;4972932;28;20057;-73
2021/11/12 11:30:27;;;;;;;75.57;37.60;;;;;;;11.91;58.85;100719.44;4977686;28;20060;-73
2021/11/12 11:32:54;;;;;;;66.05;33.97;;;;;;;11.92;58.81;100719.34;4970749;28;20051;-72
2021/11/12 11:35:24;;;;;;;66.50;34.95;;;;;;;11.98;58.76;100721.53;4969131;28;20061;-74
2021/11/12 11:37:54;;;;;;;74.78;35.88;;;;;;;11.85;58.85;100715.41;4969094;28;20554;-73
2021/11/12 11:40:25;;;;;;;64.47;33.30;;;;;;;11.90;58.72;100717.69;4967086;28;20051;-73
2021/11/12 11:42:53;;;;;;;79.22;38.78;;;;;;;11.95;58.77;100715.59;4971615;28;20054;-76
2021/11/12 11:45:22;;;;;;;69.90;36.35;;;;;;;11.92;58.66;100716.69;4972700;28;20050;-74
2021/11/12 11:47:49;;;;;;;74.43;40.80;;;;;;;11.92;58.51;100716.69;4982524;28;20054;-76
2021/11/12 11:50:27;;;;;;;79.00;39.22;;;;;;;11.91;58.88;100708.84;4983446;28;20606;-75
2021/11/12 11:52:54;;;;;;;72.53;35.38;;;;;;;11.94;58.69;100709.47;4978726;28;20050;-73
2021/11/12 11:55:34;;;;;;;66.90;34.22;;;;;;;11.94;58.55;100713.91;4974798;28;20486;-70
2021/11/12 11:58:36;;;;;;;72.25;36.72;;;;;;;11.84;58.82;100714.53;4963531;28;20057;-72
2021/11/12 12:01:40;;;;;;;62.80;32.47;;;;;;;11.89;58.69;100706.28;4971982;28;20057;-78
2021/11/12 12:04:36;;;;;;;68.13;33.63;;;;;;;11.81;58.88;100703.31;4982845;28;20613;-73
2021/11/12 12:07:25;;;;;;;62.90;31.57;;;;;;;11.78;58.86;100692.97;4983179;28;20077;-75
2021/11/12 12:10:09;;;;;;;66.40;35.65;;;;;;;11.71;58.79;100692.53;4966220;28;20395;-72
2021/11/12 12:13:02;;;;;;;71.85;36.63;;;;;;;11.71;59.07;100692.53;4984192;28;20121;-72
2021/11/12 12:15:45;;;;;;;63.40;35.30;;;;;;;11.68;58.93;100698.03;4927523;29;20499;-75
2021/11/12 12:18:22;;;;;;;65.13;32.55;;;;;;;11.69;58.97;100696.25;4927674;29;20055;-78
2021/11/12 12:21:32;;;;;;;67.55;32.13;;;;;;;11.79;58.80;100687.56;4912412;29;20055;-73
2021/11/12 12:36:21;;;;;;;60.15;31.63;;;;;;;11.72;58.52;100678.38;4880199;29;20007;-73
2021/11/12 13:20:27;;;;;;;59.03;34.00;;;;;;;11.35;59.02;100658.91;4866455;28;20076;-70
2021/11/12 13:23:08;;;;;;;65.95;36.40;;;;;;;11.32;59.08;100657.31;4877028;29;20278;-73
2021/11/12 13:25:37;;;;;;;64.00;33.72;;;;;;;11.27;59.21;100657.66;4877540;29;20042;-73
2021/11/12 13:28:10;;;;;;;60.50;33.42;;;;;;;11.19;59.34;100662.63;4899047;28;20052;-73
2021/11/12 13:30:39;;;;;;;62.42;34.10;;;;;;;11.13;59.56;100662.19;4944658;28;20063;-74
2021/11/12 13:33:24;;;;;;;64.65;34.65;;;;;;;11.03;59.64;100657.53;4949050;28;20043;-76
2021/11/12 13:35:54;;;;;;;62.50;34.73;;;;;;;11.00;59.67;100659.53;4951588;28;20063;-72
2021/11/12 13:38:22;;;;;;;62.60;34.42;;;;;;;10.93;59.80;100661.75;4950053;28;20787;-74
2021/11/12 13:40:52;;;;;;;54.13;31.17;;;;;;;10.90;59.93;100660.16;4950872;28;20035;-75
2021/11/12 13:43:28;;;;;;;60.08;33.30;;;;;;;10.91;59.97;100661.00;4949635;28;20043;-72
2021/11/12 13:45:59;;;;;;;59.20;33.25;;;;;;;10.92;59.94;100673.25;4951309;28;20055;-71
2021/11/12 13:48:27;;;;;;;50.95;30.13;;;;;;;10.87;59.86;100668.28;4952218;28;20036;-77
2021/11/12 13:51:01;;;;;;;54.17;30.85;;;;;;;10.86;59.70;100677.16;4954812;28;20130;-72
2021/11/12 13:53:29;;;;;;;54.78;29.60;;;;;;;10.85;60.08;100675.47;4953982;28;20082;-72
2021/11/12 13:56:00;;;;;;;51.20;27.58;;;;;;;10.86;59.80;100669.25;4951442;28;20122;-73
2021/11/12 13:58:28;;;;;;;47.65;27.45;;;;;;;10.87;59.85;100673.56;4949818;28;20109;-75
2021/11/12 14:00:57;;;;;;;52.70;28.45;;;;;;;10.82;59.97;100670.41;4947419;28;20043;-75
2021/11/12 14:03:34;;;;;;;54.78;27.20;;;;;;;10.85;60.12;100670.19;4965147;28;20052;-71
2021/11/12 14:06:09;;;;;;;53.15;30.48;;;;;;;10.82;60.24;100673.06;4992136;28;20096;-77
2021/11/12 14:08:39;;;;;;;55.55;28.48;;;;;;;10.79;60.00;100670.59;5046171;28;20582;-79
2021/11/12 14:11:18;;;;;;;47.55;29.15;;;;;;;10.73;60.33;100671.00;4982015;28;20100;-78
2021/11/12 14:13:47;;;;;;;53.20;27.15;;;;;;;10.68;60.19;100670.47;4986240;28;20078;-77
2021/11/12 14:16:18;;;;;;;45.72;26.70;;;;;;;10.61;60.35;100675.31;4976116;28;20042;-74
2021/11/12 14:21:51;;;;;;;40.33;21.77;;;;;;;10.51;60.46;100672.44;5016757;28;20045;-76
2021/11/12 14:27:09;;;;;;;47.45;24.95;;;;;;;10.49;60.63;100671.66;5021976;28;20092;-72
2021/11/12 14:32:40;;;;;;;44.78;25.63;;;;;;;10.49;60.67;100669.03;4947072;29;20059;-71
2021/11/12 14:35:19;;;;;;;44.63;25.05;;;;;;;10.48;60.65;100666.50;4946153;29;20047;-71
2021/11/12 14:37:57;;;;;;;40.00;22.95;;;;;;;10.46;60.60;100661.31;4950203;29;20062;-73
2021/11/12 14:40:35;;;;;;;45.17;23.42;;;;;;;10.46;60.67;100665.72;4947637;28;20275;-74
2021/11/12 14:43:21;;;;;;;44.13;25.25;;;;;;;10.44;60.80;100673.78;4949638;29;20035;-72
2021/11/12 14:45:52;;;;;;;60.22;28.48;;;;;;;10.43;60.59;100677.38;4945800;29;20079;-68
2021/11/12 14:48:26;;;;;;;47.83;26.52;;;;;;;10.39;60.80;100675.88;4931368;29;20055;-72
2021/11/12 14:51:00;;;;;;;56.38;28.52;;;;;;;10.35;60.70;100684.91;4943912;29;20134;-76
2021/11/12 14:53:37;;;;;;;57.22;30.52;;;;;;;10.33;60.89;100673.63;4943583;29;20078;-74
2021/11/12 14:56:10;;;;;;;55.92;30.90;;;;;;;10.31;61.11;100675.50;4943682;29;20055;-72
2021/11/12 14:58:41;;;;;;;63.78;33.20;;;;;;;10.32;61.05;100677.22;4952087;28;20054;-74
2021/11/12 15:01:22;;;;;;;62.75;32.55;;;;;;;10.33;61.03;100676.25;5004945;28;20046;-83
2021/11/12 15:03:51;;;;;;;67.40;33.65;;;;;;;10.35;60.87;100679.63;5007930;28;20054;-77
2021/11/12 15:06:20;;;;;;;57.85;30.80;;;;;;;10.31;61.14;100678.16;5002814;28;20050;-74